• Join FlightAware (Why Join?)
  • Login
  • US Flag 
04:43AM EST


 

Airport Tracker/Info


-or-


 

Live Flight TrackerFlight Track Log ✈ CES5696 ✈ 15-Nov-2013 ✈ ZHLY / LYA - ZBAA / PEK

Flight Track Log - Related Links

Times and Time Zones

All times are in EST time to prevent confusion due to time zone crossing. See the CES5696 flight status page for this flight to view local times or setup timezone preferences in your user account.

Time Position Orientation Groundspeed Altitude Reporting Facility
EST Latitude Longitude Course Direction KTS MPH feet Rate Location/Type
11:09PM 38.1470 116.0050 17° North 393 452 18,700  Level FlightAware
11:10PM 38.2530 116.0480 18° North 383 441 17,100 -1,740 Descending FlightAware
11:11PM 38.2980 116.0650 17° North 377 434 16,200 -2,040 Descending FlightAware
11:11PM 38.3720 116.0960 18° North 372 428 14,700 -1,920 Descending FlightAware
11:12PM 38.4190 116.1150 18° North 367 422 13,900 -840 Descending FlightAware
11:12PM 38.4810 116.1400 18° North 366 421 13,800 -60 Descending FlightAware
11:13PM 38.5820 116.1810 18° North 363 418 13,800  Level FlightAware
11:14PM 38.6720 116.2180 18° North 368 423 13,800  Level FlightAware
11:15PM 38.7580 116.2530 18° North 366 421 13,800  Level FlightAware
11:16PM 38.8340 116.2840 18° North 367 422 13,800  Level FlightAware
11:17PM 38.8940 116.3090 18° North 344 396 13,800  Level FlightAware
11:17PM 38.9420 116.3280 17° North 333 383 13,800  Level FlightAware
11:18PM 39.0190 116.3600 18° North 334 384 13,800  Level FlightAware
11:19PM 39.1050 116.3950 18° North 333 383 13,800  Level FlightAware
11:19PM 39.1280 116.4000 10° North 326 375 13,800  Level FlightAware
11:20PM 39.2050 116.3770 347° North 314 361 13,800 -360 Level FlightAware
11:21PM 39.2610 116.3580 345° North 310 357 13,300 -900 Descending FlightAware
11:22PM 39.3140 116.3400 345° North 310 357 12,700 -1,080 Descending FlightAware
11:22PM 39.3910 116.3130 345° North 301 346 11,700 -1,020 Descending FlightAware
11:23PM 39.4580 116.2900 345° North 280 322 10,900 -1,020 Descending FlightAware
11:24PM 39.5090 116.2810 352° North 283 326 10,200 -1,020 Descending FlightAware
11:24PM 39.5450 116.2760 354° North 276 318 9,800 -720 Descending FlightAware
11:25PM 39.5760 116.2720 354° North 269 310 9,600 -540 Descending FlightAware
11:25PM 39.6190 116.2660 354° North 243 280 9,300 -540 Descending FlightAware
11:26PM 39.6530 116.2620 355° North 223 257 9,000 -600 Descending FlightAware
11:26PM 39.6740 116.2590 354° North 215 247 8,800 -900 Descending FlightAware
11:27PM 39.7020 116.2980 47° Northeast 237 273 8,100 -840 Descending FlightAware
11:28PM 39.6930 116.3350 108° East 234 269 7,800 -840 Descending FlightAware
11:28PM 39.6830 116.3660 113° Southeast 230 265 7,400 -1,020 Descending FlightAware
11:28PM 39.6780 116.4080 99° East 223 257 6,900 -600 Descending FlightAware
11:29PM 39.6760 116.4460 94° East 219 252 6,800 -120 Descending FlightAware
11:30PM 39.6740 116.4900 93° East 223 257 6,800  Level FlightAware
11:30PM 39.6730 116.5150 93° East 223 257 6,800  Level FlightAware
11:30PM 39.6710 116.5370 97° East 222 255 6,800 -420 Level FlightAware
11:32PM 39.7740 116.6210 North 198 228 5,800 -480 Descending FlightAware
11:33PM 39.8715 116.5602 North  Level Estimated
11:33PM 39.7990 116.6170 353° North 193 222 5,600  Level FlightAware
11:33PM 39.8250 116.6130 353° North 193 222 5,200 -1,200 Descending FlightAware
11:34PM 39.8530 116.6090 354° North 201 231 4,400 -1,380 Descending FlightAware
11:34PM 39.8780 116.6050 353° North 199 229 3,900 -1,020 Descending FlightAware
11:35PM 39.9020 116.6010 353° North 194 223 3,500 -1,020 Descending FlightAware
11:35PM 39.9310 116.5970 354° North 189 217 2,900 -1,080 Descending FlightAware
11:36PM 39.9500 116.5940 353° North 167 192 2,500 -1,020 Descending FlightAware
11:36PM 39.9560 116.5930 353° North 158 182 2,400 -780 Descending FlightAware
11:37PM 39.9910 116.5870 353° North 126 145 1,700 -780 Descending FlightAware
11:37PM 40.0060 116.5850 354° North 123 142 1,400 -360 Descending FlightAware
11:38PM 40.0190 116.5830 353° North 123 142 1,400  Level FlightAware